Adiyaman, Turkey

10:32 AM EEST on September 01, 2014 (GMT +0300)
SANLIURFA GAP | Change Station
CLOSE
Current Station
Airport
Location: SANLIURFA GAP,
Elevation: 2707 ft
Nearby Weather Stations

Elev 2707 ft 37.45 °N, 38.90 °E | Updated 12 minutes ago

Clear
Clear
93 °F
Feels Like 93 °F
N
6
Wind Variable Wind from Variable

Today
High -- | Low -- °F
--% Chance of Precip.
Yesterday
High -- | Low -- °F
Precip. -- in
5:56 AM 6:56 PM
Waxing Crescent, 38% visible
Pressure 29.86 in
Visibility -9999.0 miles
Clouds
Dew Point 27 °F
Humidity 9%
Rainfall 0.00 in
Snow Depth Not available.
UV Not available.
Pollen Not available.
Air Quality Not available.
Flu Activity Not available.
METAR LTCS 010720Z VRB05KT CAVOK 34/M03 Q1011

More Conditions Fewer Conditions

Pressure 29.86 in
Visibility -9999.0 miles
Clouds
Dew Point 27 °F
Humidity 9%
Rainfall 0.00 in
Snow Depth Not available.
UV Not available.
Pollen Not available.
Air Quality Not available.
Flu Activity Not available.
METAR LTCS 010720Z VRB05KT CAVOK 34/M03 Q1011

More Conditions Fewer Conditions

10-Day Weather Forecast

Almanac

Astronomy

Sep. 01, 2014 Rise Set
Actual Time 5:56 AM EEST 6:56 PM EEST
Civil Twilight 5:29 AM EEST 7:23 PM EEST
Nautical Twilight 4:57 AM EEST 7:55 PM EEST
Astronomical Twilight 4:24 AM EEST 8:28 PM EEST
Moon 12:14 PM EEST 10:48 PM EEST
Length of Visible Light 13h 53m
Length of Day
12h 59m
Tomorrow will be 2m 20s shorter.
Waxing Crescent, 38% of the Moon is Illuminated
Today
Waxing Crescent
Sep 2
First Quarter
Sep 8
Full
Sep 15
Last Quarter
Sep 24
New

Yesterday's Extremes

Country Highs Country Lows

Community

WunderPhotos

Upload Photos

1,749,154 photos uploaded!

Nearby

Snow Depth

Not available.

Earthquake Activity

City Distance Mag. Time & Date
No recent earthquake activity has been reported nearby.
Minimum magnitude displayed is 2.5.

Coastal Water Temperatures

Place Temperature
No Stations Reporting

Nearby Weather Stations